sensor_id;sensor_type;location;lat;lon;timestamp;temperature;humidity
15967;DHT22;15175;48.154;11.534;2022-11-11T00:00:47;8.80;99.90
15967;DHT22;15175;48.154;11.534;2022-11-11T00:03:32;8.90;99.90
15967;DHT22;15175;48.154;11.534;2022-11-11T00:06:19;8.80;99.90
15967;DHT22;15175;48.154;11.534;2022-11-11T00:09:05;8.80;99.90
15967;DHT22;15175;48.154;11.534;2022-11-11T00:11:51;8.80;99.90
15967;DHT22;15175;48.154;11.534;2022-11-11T00:14:36;8.80;99.90
15967;DHT22;15175;48.154;11.534;2022-11-11T00:17:22;8.80;99.90
15967;DHT22;15175;48.154;11.534;2022-11-11T00:20:25;8.70;99.90
15967;DHT22;15175;48.154;11.534;2022-11-11T00:23:29;8.60;99.90
15967;DHT22;15175;48.154;11.534;2022-11-11T00:26:33;8.50;99.90
15967;DHT22;15175;48.154;11.534;2022-11-11T00:29:18;8.30;99.90
15967;DHT22;15175;48.154;11.534;2022-11-11T00:32:05;8.20;99.90
15967;DHT22;15175;48.154;11.534;2022-11-11T00:35:10;8.20;99.90
15967;DHT22;15175;48.154;11.534;2022-11-11T00:38:14;8.30;99.90
15967;DHT22;15175;48.154;11.534;2022-11-11T00:41:23;8.30;99.90
15967;DHT22;15175;48.154;11.534;2022-11-11T00:44:08;8.30;99.90
15967;DHT22;15175;48.154;11.534;2022-11-11T00:46:54;8.30;99.90
15967;DHT22;15175;48.154;11.534;2022-11-11T00:49:57;8.30;99.90
15967;DHT22;15175;48.154;11.534;2022-11-11T00:53:01;8.40;99.90
15967;DHT22;15175;48.154;11.534;2022-11-11T00:55:47;8.40;99.90
15967;DHT22;15175;48.154;11.534;2022-11-11T00:58:34;8.40;99.90
15967;DHT22;15175;48.154;11.534;2022-11-11T01:01:20;8.20;99.90
15967;DHT22;15175;48.154;11.534;2022-11-11T01:04:05;8.40;99.90
15967;DHT22;15175;48.154;11.534;2022-11-11T01:06:51;8.30;99.90
15967;DHT22;15175;48.154;11.534;2022-11-11T01:09:37;8.30;99.90
15967;DHT22;15175;48.154;11.534;2022-11-11T01:12:22;8.30;99.90
15967;DHT22;15175;48.154;11.534;2022-11-11T01:15:09;8.30;99.90
15967;DHT22;15175;48.154;11.534;2022-11-11T01:17:55;8.30;99.90
15967;DHT22;15175;48.154;11.534;2022-11-11T01:20:41;8.20;99.90
15967;DHT22;15175;48.154;11.534;2022-11-11T01:23:27;8.30;99.90
15967;DHT22;15175;48.154;11.534;2022-11-11T01:26:14;8.20;99.90
15967;DHT22;15175;48.154;11.534;2022-11-11T01:29:00;8.30;99.90
15967;DHT22;15175;48.154;11.534;2022-11-11T01:31:47;8.30;99.90
15967;DHT22;15175;48.154;11.534;2022-11-11T01:34:32;8.30;99.90
15967;DHT22;15175;48.154;11.534;2022-11-11T01:37:18;8.30;99.90
15967;DHT22;15175;48.154;11.534;2022-11-11T01:40:04;8.30;99.90
15967;DHT22;15175;48.154;11.534;2022-11-11T01:42:51;8.30;99.90
15967;DHT22;15175;48.154;11.534;2022-11-11T01:45:49;8.40;99.90
15967;DHT22;15175;48.154;11.534;2022-11-11T01:48:40;8.50;99.90
15967;DHT22;15175;48.154;11.534;2022-11-11T01:51:48;8.50;99.90
15967;DHT22;15175;48.154;11.534;2022-11-11T01:54:38;8.50;99.90
15967;DHT22;15175;48.154;11.534;2022-11-11T01:57:31;8.40;99.90
15967;DHT22;15175;48.154;11.534;2022-11-11T02:00:19;8.40;99.90
15967;DHT22;15175;48.154;11.534;2022-11-11T02:03:07;8.50;99.90
15967;DHT22;15175;48.154;11.534;2022-11-11T02:05:55;8.40;99.90
15967;DHT22;15175;48.154;11.534;2022-11-11T02:08:41;8.40;99.90
15967;DHT22;15175;48.154;11.534;2022-11-11T02:11:27;8.40;99.90
15967;DHT22;15175;48.154;11.534;2022-11-11T02:14:33;8.40;99.90
15967;DHT22;15175;48.154;11.534;2022-11-11T02:17:24;8.40;99.90
15967;DHT22;15175;48.154;11.534;2022-11-11T02:20:12;8.40;99.90
15967;DHT22;15175;48.154;11.534;2022-11-11T02:23:03;8.40;99.90
15967;DHT22;15175;48.154;11.534;2022-11-11T02:25:54;8.40;99.90
15967;DHT22;15175;48.154;11.534;2022-11-11T02:28:41;8.30;99.90
15967;DHT22;15175;48.154;11.534;2022-11-11T02:31:27;8.30;99.90
15967;DHT22;15175;48.154;11.534;2022-11-11T02:34:13;8.30;99.90
15967;DHT22;15175;48.154;11.534;2022-11-11T02:37:01;8.20;99.90
15967;DHT22;15175;48.154;11.534;2022-11-11T02:39:49;8.20;99.90
15967;DHT22;15175;48.154;11.534;2022-11-11T02:42:37;8.20;99.90
15967;DHT22;15175;48.154;11.534;2022-11-11T02:45:23;8.30;99.90
15967;DHT22;15175;48.154;11.534;2022-11-11T02:48:09;8.30;99.90
15967;DHT22;15175;48.154;11.534;2022-11-11T02:50:55;8.30;99.90
15967;DHT22;15175;48.154;11.534;2022-11-11T02:53:40;8.20;99.90
15967;DHT22;15175;48.154;11.534;2022-11-11T02:56:26;8.30;99.90
15967;DHT22;15175;48.154;11.534;2022-11-11T02:59:31;8.30;99.90
15967;DHT22;15175;48.154;11.534;2022-11-11T03:02:16;8.20;99.90
15967;DHT22;15175;48.154;11.534;2022-11-11T03:05:02;8.20;99.90
15967;DHT22;15175;48.154;11.534;2022-11-11T03:07:48;8.20;99.90
15967;DHT22;15175;48.154;11.534;2022-11-11T03:10:33;8.10;99.90
15967;DHT22;15175;48.154;11.534;2022-11-11T03:13:19;8.20;99.90
15967;DHT22;15175;48.154;11.534;2022-11-11T03:16:06;8.20;99.90
15967;DHT22;15175;48.154;11.534;2022-11-11T03:19:12;8.30;99.90
15967;DHT22;15175;48.154;11.534;2022-11-11T03:21:57;8.10;99.90
15967;DHT22;15175;48.154;11.534;2022-11-11T03:24:42;8.10;99.90
15967;DHT22;15175;48.154;11.534;2022-11-11T03:27:45;8.10;99.90
15967;DHT22;15175;48.154;11.534;2022-11-11T03:30:31;8.10;99.90
15967;DHT22;15175;48.154;11.534;2022-11-11T03:33:18;8.10;99.90
15967;DHT22;15175;48.154;11.534;2022-11-11T03:36:04;8.00;99.90
15967;DHT22;15175;48.154;11.534;2022-11-11T03:38:50;8.10;99.90
15967;DHT22;15175;48.154;11.534;2022-11-11T03:41:34;8.10;99.90
15967;DHT22;15175;48.154;11.534;2022-11-11T03:44:20;8.00;99.90
15967;DHT22;15175;48.154;11.534;2022-11-11T03:47:06;8.00;99.90
15967;DHT22;15175;48.154;11.534;2022-11-11T03:49:53;7.90;99.90
15967;DHT22;15175;48.154;11.534;2022-11-11T03:52:40;7.80;99.90
15967;DHT22;15175;48.154;11.534;2022-11-11T03:55:26;7.80;99.90
15967;DHT22;15175;48.154;11.534;2022-11-11T03:58:12;7.70;99.90
15967;DHT22;15175;48.154;11.534;2022-11-11T04:00:58;7.70;99.90
15967;DHT22;15175;48.154;11.534;2022-11-11T04:04:04;7.70;99.90
15967;DHT22;15175;48.154;11.534;2022-11-11T04:07:09;7.70;99.90
15967;DHT22;15175;48.154;11.534;2022-11-11T04:10:12;7.60;99.90
15967;DHT22;15175;48.154;11.534;2022-11-11T04:13:07;7.60;99.90
15967;DHT22;15175;48.154;11.534;2022-11-11T04:16:11;7.40;99.90
15967;DHT22;15175;48.154;11.534;2022-11-11T04:18:57;7.50;99.90
15967;DHT22;15175;48.154;11.534;2022-11-11T04:22:00;7.50;99.90
15967;DHT22;15175;48.154;11.534;2022-11-11T04:24:46;7.40;99.90
15967;DHT22;15175;48.154;11.534;2022-11-11T04:27:50;7.40;99.90
15967;DHT22;15175;48.154;11.534;2022-11-11T04:30:55;7.30;99.90
15967;DHT22;15175;48.154;11.534;2022-11-11T04:33:40;7.30;99.90
15967;DHT22;15175;48.154;11.534;2022-11-11T04:36:26;7.30;99.90
15967;DHT22;15175;48.154;11.534;2022-11-11T04:39:11;7.30;99.90
15967;DHT22;15175;48.154;11.534;2022-11-11T04:42:15;7.20;99.90
15967;DHT22;15175;48.154;11.534;2022-11-11T04:45:02;7.30;99.90
15967;DHT22;15175;48.154;11.534;2022-11-11T04:50:52;7.10;99.90
15967;DHT22;15175;48.154;11.534;2022-11-11T04:53:38;7.20;99.90
15967;DHT22;15175;48.154;11.534;2022-11-11T04:56:23;7.30;99.90
15967;DHT22;15175;48.154;11.534;2022-11-11T04:59:28;7.30;99.90
15967;DHT22;15175;48.154;11.534;2022-11-11T05:02:13;7.40;99.90
15967;DHT22;15175;48.154;11.534;2022-11-11T05:05:16;7.40;99.90
15967;DHT22;15175;48.154;11.534;2022-11-11T05:08:02;7.40;99.90
15967;DHT22;15175;48.154;11.534;2022-11-11T05:11:05;7.50;99.90
15967;DHT22;15175;48.154;11.534;2022-11-11T05:13:52;7.50;99.90
15967;DHT22;15175;48.154;11.534;2022-11-11T05:16:57;7.50;99.90
15967;DHT22;15175;48.154;11.534;2022-11-11T05:20:01;7.50;99.90
15967;DHT22;15175;48.154;11.534;2022-11-11T05:23:04;7.40;99.90
15967;DHT22;15175;48.154;11.534;2022-11-11T05:25:50;7.40;99.90
15967;DHT22;15175;48.154;11.534;2022-11-11T05:28:35;7.40;99.90
15967;DHT22;15175;48.154;11.534;2022-11-11T05:31:20;7.40;99.90
15967;DHT22;15175;48.154;11.534;2022-11-11T05:34:07;7.40;99.90
15967;DHT22;15175;48.154;11.534;2022-11-11T05:36:52;7.40;99.90
15967;DHT22;15175;48.154;11.534;2022-11-11T05:39:38;7.40;99.90
15967;DHT22;15175;48.154;11.534;2022-11-11T05:42:24;7.40;99.90
15967;DHT22;15175;48.154;11.534;2022-11-11T05:45:10;7.40;99.90
15967;DHT22;15175;48.154;11.534;2022-11-11T05:48:00;7.40;99.90
15967;DHT22;15175;48.154;11.534;2022-11-11T05:50:47;7.40;99.90
15967;DHT22;15175;48.154;11.534;2022-11-11T05:53:32;7.30;99.90
15967;DHT22;15175;48.154;11.534;2022-11-11T05:56:18;7.30;99.90
15967;DHT22;15175;48.154;11.534;2022-11-11T05:59:03;7.40;99.90
15967;DHT22;15175;48.154;11.534;2022-11-11T06:01:49;7.40;99.90
15967;DHT22;15175;48.154;11.534;2022-11-11T06:04:35;7.40;99.90
15967;DHT22;15175;48.154;11.534;2022-11-11T06:07:22;7.40;99.90
15967;DHT22;15175;48.154;11.534;2022-11-11T06:10:08;7.40;99.90
15967;DHT22;15175;48.154;11.534;2022-11-11T06:13:13;7.40;99.90
15967;DHT22;15175;48.154;11.534;2022-11-11T06:15:59;7.40;99.90
15967;DHT22;15175;48.154;11.534;2022-11-11T06:18:45;7.40;99.90
15967;DHT22;15175;48.154;11.534;2022-11-11T06:21:31;7.50;99.90
15967;DHT22;15175;48.154;11.534;2022-11-11T06:24:38;7.50;99.90
15967;DHT22;15175;48.154;11.534;2022-11-11T06:27:23;7.50;99.90
15967;DHT22;15175;48.154;11.534;2022-11-11T06:30:09;7.50;99.90
15967;DHT22;15175;48.154;11.534;2022-11-11T06:32:54;7.50;99.90
15967;DHT22;15175;48.154;11.534;2022-11-11T06:35:43;7.60;99.90
15967;DHT22;15175;48.154;11.534;2022-11-11T06:38:29;7.60;99.90
15967;DHT22;15175;48.154;11.534;2022-11-11T06:41:16;7.60;99.90
15967;DHT22;15175;48.154;11.534;2022-11-11T06:44:02;7.60;99.90
15967;DHT22;15175;48.154;11.534;2022-11-11T06:46:48;7.60;99.90
15967;DHT22;15175;48.154;11.534;2022-11-11T06:49:33;7.70;99.90
15967;DHT22;15175;48.154;11.534;2022-11-11T06:52:19;7.70;99.90
15967;DHT22;15175;48.154;11.534;2022-11-11T06:55:05;7.70;99.90
15967;DHT22;15175;48.154;11.534;2022-11-11T06:57:53;7.70;99.90
15967;DHT22;15175;48.154;11.534;2022-11-11T07:00:39;7.70;99.90
15967;DHT22;15175;48.154;11.534;2022-11-11T07:03:24;7.70;99.90
15967;DHT22;15175;48.154;11.534;2022-11-11T07:06:10;7.80;99.90
15967;DHT22;15175;48.154;11.534;2022-11-11T07:08:55;7.80;99.90
15967;DHT22;15175;48.154;11.534;2022-11-11T07:11:41;7.80;99.90
15967;DHT22;15175;48.154;11.534;2022-11-11T07:14:28;7.70;99.90
15967;DHT22;15175;48.154;11.534;2022-11-11T07:17:13;7.80;99.90
15967;DHT22;15175;48.154;11.534;2022-11-11T07:19:59;7.80;99.90
15967;DHT22;15175;48.154;11.534;2022-11-11T07:22:45;7.80;99.90
15967;DHT22;15175;48.154;11.534;2022-11-11T07:25:30;7.80;99.90
15967;DHT22;15175;48.154;11.534;2022-11-11T07:28:16;7.80;99.90
15967;DHT22;15175;48.154;11.534;2022-11-11T07:31:03;7.80;99.90
15967;DHT22;15175;48.154;11.534;2022-11-11T07:33:49;7.90;99.90
15967;DHT22;15175;48.154;11.534;2022-11-11T07:36:35;7.80;99.90
15967;DHT22;15175;48.154;11.534;2022-11-11T07:39:20;7.80;99.90
15967;DHT22;15175;48.154;11.534;2022-11-11T07:42:06;7.90;99.90
15967;DHT22;15175;48.154;11.534;2022-11-11T07:44:52;8.00;99.90
15967;DHT22;15175;48.154;11.534;2022-11-11T07:47:41;8.00;99.90
15967;DHT22;15175;48.154;11.534;2022-11-11T07:50:27;8.00;99.90
15967;DHT22;15175;48.154;11.534;2022-11-11T07:53:13;8.00;99.90
15967;DHT22;15175;48.154;11.534;2022-11-11T07:55:58;8.10;99.90
15967;DHT22;15175;48.154;11.534;2022-11-11T07:58:44;8.20;99.90
15967;DHT22;15175;48.154;11.534;2022-11-11T08:01:29;8.20;99.90
15967;DHT22;15175;48.154;11.534;2022-11-11T08:04:16;8.30;99.90
15967;DHT22;15175;48.154;11.534;2022-11-11T08:07:02;8.30;99.90
15967;DHT22;15175;48.154;11.534;2022-11-11T08:09:47;8.30;99.90
15967;DHT22;15175;48.154;11.534;2022-11-11T08:12:33;8.40;99.90
15967;DHT22;15175;48.154;11.534;2022-11-11T08:15:37;8.40;99.90
15967;DHT22;15175;48.154;11.534;2022-11-11T08:18:22;8.40;99.90
15967;DHT22;15175;48.154;11.534;2022-11-11T08:21:09;8.40;99.90
15967;DHT22;15175;48.154;11.534;2022-11-11T08:23:55;8.40;99.90
15967;DHT22;15175;48.154;11.534;2022-11-11T08:26:40;8.40;99.90
15967;DHT22;15175;48.154;11.534;2022-11-11T08:29:26;8.40;99.90
15967;DHT22;15175;48.154;11.534;2022-11-11T08:32:12;8.40;99.90
15967;DHT22;15175;48.154;11.534;2022-11-11T08:34:57;8.50;99.90
15967;DHT22;15175;48.154;11.534;2022-11-11T08:37:45;8.50;99.90
15967;DHT22;15175;48.154;11.534;2022-11-11T08:40:30;8.50;99.90
15967;DHT22;15175;48.154;11.534;2022-11-11T08:43:16;8.50;99.90
15967;DHT22;15175;48.154;11.534;2022-11-11T08:46:02;8.60;99.90
15967;DHT22;15175;48.154;11.534;2022-11-11T08:48:48;8.70;99.90
15967;DHT22;15175;48.154;11.534;2022-11-11T08:51:33;8.70;99.90
15967;DHT22;15175;48.154;11.534;2022-11-11T08:54:20;8.70;99.90
15967;DHT22;15175;48.154;11.534;2022-11-11T08:57:06;8.80;99.90
15967;DHT22;15175;48.154;11.534;2022-11-11T08:59:51;8.80;99.90
15967;DHT22;15175;48.154;11.534;2022-11-11T09:02:37;8.90;99.90
15967;DHT22;15175;48.154;11.534;2022-11-11T09:05:22;8.90;99.90
15967;DHT22;15175;48.154;11.534;2022-11-11T09:08:08;9.00;99.90
15967;DHT22;15175;48.154;11.534;2022-11-11T09:10:56;9.00;99.90
15967;DHT22;15175;48.154;11.534;2022-11-11T09:13:43;9.10;99.90
15967;DHT22;15175;48.154;11.534;2022-11-11T09:16:29;9.10;99.90
15967;DHT22;15175;48.154;11.534;2022-11-11T09:19:14;9.20;99.90
15967;DHT22;15175;48.154;11.534;2022-11-11T09:22:00;9.30;99.90
15967;DHT22;15175;48.154;11.534;2022-11-11T09:24:46;9.30;99.90
15967;DHT22;15175;48.154;11.534;2022-11-11T09:27:33;9.40;99.90
15967;DHT22;15175;48.154;11.534;2022-11-11T09:30:18;9.60;99.90
15967;DHT22;15175;48.154;11.534;2022-11-11T09:33:04;9.70;99.90
15967;DHT22;15175;48.154;11.534;2022-11-11T09:35:50;9.70;99.90
15967;DHT22;15175;48.154;11.534;2022-11-11T09:38:36;9.70;99.90
15967;DHT22;15175;48.154;11.534;2022-11-11T09:41:27;9.90;99.90
15967;DHT22;15175;48.154;11.534;2022-11-11T09:44:33;9.90;99.90
15967;DHT22;15175;48.154;11.534;2022-11-11T09:47:30;9.90;99.90
15967;DHT22;15175;48.154;11.534;2022-11-11T09:50:21;10.00;99.90
15967;DHT22;15175;48.154;11.534;2022-11-11T09:53:12;10.00;99.90
15967;DHT22;15175;48.154;11.534;2022-11-11T09:56:06;10.00;99.90
15967;DHT22;15175;48.154;11.534;2022-11-11T09:58:57;10.10;99.90
15967;DHT22;15175;48.154;11.534;2022-11-11T10:01:50;10.20;99.90
15967;DHT22;15175;48.154;11.534;2022-11-11T10:04:42;10.40;99.90
15967;DHT22;15175;48.154;11.534;2022-11-11T10:07:49;10.40;99.90
15967;DHT22;15175;48.154;11.534;2022-11-11T10:10:41;10.60;99.90
15967;DHT22;15175;48.154;11.534;2022-11-11T10:13:29;10.70;99.90
15967;DHT22;15175;48.154;11.534;2022-11-11T10:16:21;10.80;99.90
15967;DHT22;15175;48.154;11.534;2022-11-11T10:19:22;10.90;99.90
15967;DHT22;15175;48.154;11.534;2022-11-11T10:22:19;10.90;99.90
15967;DHT22;15175;48.154;11.534;2022-11-11T10:25:28;11.00;99.90
15967;DHT22;15175;48.154;11.534;2022-11-11T10:28:16;11.00;99.90
15967;DHT22;15175;48.154;11.534;2022-11-11T10:31:05;11.10;99.90
15967;DHT22;15175;48.154;11.534;2022-11-11T10:34:02;11.20;99.90
15967;DHT22;15175;48.154;11.534;2022-11-11T10:36:55;11.30;99.90
15967;DHT22;15175;48.154;11.534;2022-11-11T10:39:49;11.40;99.90
15967;DHT22;15175;48.154;11.534;2022-11-11T10:42:36;11.60;99.90
15967;DHT22;15175;48.154;11.534;2022-11-11T10:45:25;11.70;99.90
15967;DHT22;15175;48.154;11.534;2022-11-11T10:48:15;11.70;99.90
15967;DHT22;15175;48.154;11.534;2022-11-11T10:51:04;11.80;99.90
15967;DHT22;15175;48.154;11.534;2022-11-11T10:53:59;11.90;99.90
15967;DHT22;15175;48.154;11.534;2022-11-11T10:56:52;11.90;99.90
15967;DHT22;15175;48.154;11.534;2022-11-11T10:59:44;12.00;99.90
15967;DHT22;15175;48.154;11.534;2022-11-11T11:02:39;12.10;99.90
15967;DHT22;15175;48.154;11.534;2022-11-11T11:05:27;12.10;99.90
15967;DHT22;15175;48.154;11.534;2022-11-11T11:08:18;12.10;99.90
15967;DHT22;15175;48.154;11.534;2022-11-11T11:11:09;12.20;99.90
15967;DHT22;15175;48.154;11.534;2022-11-11T11:13:59;12.20;99.90
15967;DHT22;15175;48.154;11.534;2022-11-11T11:16:48;12.30;99.90
15967;DHT22;15175;48.154;11.534;2022-11-11T11:19:35;12.30;99.90
15967;DHT22;15175;48.154;11.534;2022-11-11T11:22:20;12.30;99.90
15967;DHT22;15175;48.154;11.534;2022-11-11T11:25:11;12.30;99.90
15967;DHT22;15175;48.154;11.534;2022-11-11T11:28:10;12.40;99.90
15967;DHT22;15175;48.154;11.534;2022-11-11T11:30:59;12.40;99.90
15967;DHT22;15175;48.154;11.534;2022-11-11T11:33:52;12.40;99.90
15967;DHT22;15175;48.154;11.534;2022-11-11T11:36:38;12.50;99.90
15967;DHT22;15175;48.154;11.534;2022-11-11T11:39:38;12.50;99.90
15967;DHT22;15175;48.154;11.534;2022-11-11T11:42:32;12.60;99.90
15967;DHT22;15175;48.154;11.534;2022-11-11T11:45:22;12.50;99.90
15967;DHT22;15175;48.154;11.534;2022-11-11T11:48:20;12.50;99.90
15967;DHT22;15175;48.154;11.534;2022-11-11T11:51:17;12.60;99.90
15967;DHT22;15175;48.154;11.534;2022-11-11T11:54:16;12.60;99.90
15967;DHT22;15175;48.154;11.534;2022-11-11T11:57:07;12.70;99.90
15967;DHT22;15175;48.154;11.534;2022-11-11T12:00:02;12.70;99.90
15967;DHT22;15175;48.154;11.534;2022-11-11T12:06:11;12.70;99.90
15967;DHT22;15175;48.154;11.534;2022-11-11T12:09:08;12.70;99.90
15967;DHT22;15175;48.154;11.534;2022-11-11T12:12:04;12.70;99.90
15967;DHT22;15175;48.154;11.534;2022-11-11T12:15:06;12.70;99.90
15967;DHT22;15175;48.154;11.534;2022-11-11T12:18:09;12.70;99.90
15967;DHT22;15175;48.154;11.534;2022-11-11T12:21:06;12.80;99.90
15967;DHT22;15175;48.154;11.534;2022-11-11T12:23:57;12.80;99.90
15967;DHT22;15175;48.154;11.534;2022-11-11T12:26:50;12.80;99.90
15967;DHT22;15175;48.154;11.534;2022-11-11T12:29:47;12.70;99.90
15967;DHT22;15175;48.154;11.534;2022-11-11T12:33:01;12.60;99.90
15967;DHT22;15175;48.154;11.534;2022-11-11T12:35:59;12.60;99.90
15967;DHT22;15175;48.154;11.534;2022-11-11T12:38:57;12.70;99.90
15967;DHT22;15175;48.154;11.534;2022-11-11T12:41:53;12.80;99.90
15967;DHT22;15175;48.154;11.534;2022-11-11T12:44:47;12.90;99.90
15967;DHT22;15175;48.154;11.534;2022-11-11T12:47:42;13.00;99.90
15967;DHT22;15175;48.154;11.534;2022-11-11T12:50:37;13.10;99.90
15967;DHT22;15175;48.154;11.534;2022-11-11T12:53:32;13.20;99.90
15967;DHT22;15175;48.154;11.534;2022-11-11T12:56:28;13.30;99.90
15967;DHT22;15175;48.154;11.534;2022-11-11T12:59:27;13.50;99.90
15967;DHT22;15175;48.154;11.534;2022-11-11T13:05:41;13.70;99.90
15967;DHT22;15175;48.154;11.534;2022-11-11T13:09:00;13.60;99.90
15967;DHT22;15175;48.154;11.534;2022-11-11T13:11:55;13.60;99.90
15967;DHT22;15175;48.154;11.534;2022-11-11T13:15:00;13.70;99.90
15967;DHT22;15175;48.154;11.534;2022-11-11T13:17:47;13.80;99.90
15967;DHT22;15175;48.154;11.534;2022-11-11T13:20:43;13.80;99.90
15967;DHT22;15175;48.154;11.534;2022-11-11T13:23:31;13.80;99.90
15967;DHT22;15175;48.154;11.534;2022-11-11T13:26:27;13.80;99.90
15967;DHT22;15175;48.154;11.534;2022-11-11T13:32:45;13.80;99.90
15967;DHT22;15175;48.154;11.534;2022-11-11T13:35:35;13.80;99.90
15967;DHT22;15175;48.154;11.534;2022-11-11T13:38:27;13.70;99.90
15967;DHT22;15175;48.154;11.534;2022-11-11T13:41:20;13.70;99.90
15967;DHT22;15175;48.154;11.534;2022-11-11T13:44:09;13.70;99.90
15967;DHT22;15175;48.154;11.534;2022-11-11T13:47:04;13.80;99.90
15967;DHT22;15175;48.154;11.534;2022-11-11T13:49:54;13.80;99.90
15967;DHT22;15175;48.154;11.534;2022-11-11T13:52:53;13.80;99.90
15967;DHT22;15175;48.154;11.534;2022-11-11T13:55:41;13.80;99.90
15967;DHT22;15175;48.154;11.534;2022-11-11T13:58:31;13.80;99.90
15967;DHT22;15175;48.154;11.534;2022-11-11T14:01:19;13.80;99.90
15967;DHT22;15175;48.154;11.534;2022-11-11T14:04:06;13.80;99.90
15967;DHT22;15175;48.154;11.534;2022-11-11T14:06:53;13.70;99.90
15967;DHT22;15175;48.154;11.534;2022-11-11T14:09:59;13.70;99.90
15967;DHT22;15175;48.154;11.534;2022-11-11T14:12:46;13.70;99.90
15967;DHT22;15175;48.154;11.534;2022-11-11T14:15:35;13.70;99.90
15967;DHT22;15175;48.154;11.534;2022-11-11T14:18:40;13.50;99.90
15967;DHT22;15175;48.154;11.534;2022-11-11T14:21:56;13.40;99.90
15967;DHT22;15175;48.154;11.534;2022-11-11T14:24:43;13.40;99.90
15967;DHT22;15175;48.154;11.534;2022-11-11T14:27:31;13.30;99.90
15967;DHT22;15175;48.154;11.534;2022-11-11T14:30:36;13.40;99.90
15967;DHT22;15175;48.154;11.534;2022-11-11T14:33:38;13.30;99.90
15967;DHT22;15175;48.154;11.534;2022-11-11T14:36:31;13.30;99.90
15967;DHT22;15175;48.154;11.534;2022-11-11T14:39:32;13.30;99.90
15967;DHT22;15175;48.154;11.534;2022-11-11T14:42:41;13.30;99.90
15967;DHT22;15175;48.154;11.534;2022-11-11T14:46:05;13.10;99.90
15967;DHT22;15175;48.154;11.534;2022-11-11T14:49:00;13.00;99.90
15967;DHT22;15175;48.154;11.534;2022-11-11T14:52:00;12.90;99.90
15967;DHT22;15175;48.154;11.534;2022-11-11T14:54:52;12.90;99.90
15967;DHT22;15175;48.154;11.534;2022-11-11T14:57:40;13.00;99.90
15967;DHT22;15175;48.154;11.534;2022-11-11T15:00:28;13.00;99.90
15967;DHT22;15175;48.154;11.534;2022-11-11T15:03:25;13.00;99.90
15967;DHT22;15175;48.154;11.534;2022-11-11T15:06:18;13.00;99.90
15967;DHT22;15175;48.154;11.534;2022-11-11T15:09:13;12.90;99.90
15967;DHT22;15175;48.154;11.534;2022-11-11T15:12:06;13.00;99.90
15967;DHT22;15175;48.154;11.534;2022-11-11T15:14:58;12.90;99.90
15967;DHT22;15175;48.154;11.534;2022-11-11T15:17:54;12.90;99.90
15967;DHT22;15175;48.154;11.534;2022-11-11T15:20:53;12.90;99.90
15967;DHT22;15175;48.154;11.534;2022-11-11T15:23:48;12.80;99.90
15967;DHT22;15175;48.154;11.534;2022-11-11T15:26:42;12.80;99.90
15967;DHT22;15175;48.154;11.534;2022-11-11T15:29:45;12.70;99.90
15967;DHT22;15175;48.154;11.534;2022-11-11T15:32:36;12.70;99.90
15967;DHT22;15175;48.154;11.534;2022-11-11T15:35:32;12.70;99.90
15967;DHT22;15175;48.154;11.534;2022-11-11T15:38:19;12.60;99.90
15967;DHT22;15175;48.154;11.534;2022-11-11T15:41:19;12.60;99.90
15967;DHT22;15175;48.154;11.534;2022-11-11T15:44:10;12.60;99.90
15967;DHT22;15175;48.154;11.534;2022-11-11T15:46:58;12.50;99.90
15967;DHT22;15175;48.154;11.534;2022-11-11T15:49:46;12.40;99.90
15967;DHT22;15175;48.154;11.534;2022-11-11T15:52:34;12.40;99.90
15967;DHT22;15175;48.154;11.534;2022-11-11T15:55:21;12.40;99.90
15967;DHT22;15175;48.154;11.534;2022-11-11T15:58:10;12.30;99.90
15967;DHT22;15175;48.154;11.534;2022-11-11T16:00:56;12.30;99.90
15967;DHT22;15175;48.154;11.534;2022-11-11T16:03:43;12.20;99.90
15967;DHT22;15175;48.154;11.534;2022-11-11T16:06:29;12.20;99.90
15967;DHT22;15175;48.154;11.534;2022-11-11T16:09:17;12.10;99.90
15967;DHT22;15175;48.154;11.534;2022-11-11T16:12:03;12.10;99.90
15967;DHT22;15175;48.154;11.534;2022-11-11T16:14:53;12.00;99.90
15967;DHT22;15175;48.154;11.534;2022-11-11T16:17:41;12.10;99.90
15967;DHT22;15175;48.154;11.534;2022-11-11T16:20:32;12.00;99.90
15967;DHT22;15175;48.154;11.534;2022-11-11T16:23:20;12.00;99.90
15967;DHT22;15175;48.154;11.534;2022-11-11T16:26:07;12.00;99.90
15967;DHT22;15175;48.154;11.534;2022-11-11T16:28:53;12.00;99.90
15967;DHT22;15175;48.154;11.534;2022-11-11T16:31:42;12.00;99.90
15967;DHT22;15175;48.154;11.534;2022-11-11T16:34:45;12.00;99.90
15967;DHT22;15175;48.154;11.534;2022-11-11T16:37:49;11.90;99.90
15967;DHT22;15175;48.154;11.534;2022-11-11T16:40:44;11.90;99.90
15967;DHT22;15175;48.154;11.534;2022-11-11T16:43:31;11.90;99.90
15967;DHT22;15175;48.154;11.534;2022-11-11T16:46:38;11.90;99.90
15967;DHT22;15175;48.154;11.534;2022-11-11T16:49:27;11.90;99.90
15967;DHT22;15175;48.154;11.534;2022-11-11T16:52:18;11.80;99.90
15967;DHT22;15175;48.154;11.534;2022-11-11T16:55:08;11.80;99.90
15967;DHT22;15175;48.154;11.534;2022-11-11T16:57:54;11.70;99.90
15967;DHT22;15175;48.154;11.534;2022-11-11T17:00:41;11.70;99.90
15967;DHT22;15175;48.154;11.534;2022-11-11T17:03:28;11.70;99.90
15967;DHT22;15175;48.154;11.534;2022-11-11T17:06:15;11.70;99.90
15967;DHT22;15175;48.154;11.534;2022-11-11T17:09:01;11.60;99.90
15967;DHT22;15175;48.154;11.534;2022-11-11T17:12:07;11.60;99.90
15967;DHT22;15175;48.154;11.534;2022-11-11T17:14:53;11.60;99.90
15967;DHT22;15175;48.154;11.534;2022-11-11T17:17:40;11.50;99.90
15967;DHT22;15175;48.154;11.534;2022-11-11T17:20:26;11.50;99.90
15967;DHT22;15175;48.154;11.534;2022-11-11T17:23:12;11.40;99.90
15967;DHT22;15175;48.154;11.534;2022-11-11T17:25:59;11.50;99.90
15967;DHT22;15175;48.154;11.534;2022-11-11T17:28:45;11.40;99.90
15967;DHT22;15175;48.154;11.534;2022-11-11T17:31:31;11.40;99.90
15967;DHT22;15175;48.154;11.534;2022-11-11T17:34:16;11.40;99.90
15967;DHT22;15175;48.154;11.534;2022-11-11T17:37:02;11.40;99.90
15967;DHT22;15175;48.154;11.534;2022-11-11T17:39:49;11.40;99.90
15967;DHT22;15175;48.154;11.534;2022-11-11T17:42:35;11.40;99.90
15967;DHT22;15175;48.154;11.534;2022-11-11T17:45:21;11.40;99.90
15967;DHT22;15175;48.154;11.534;2022-11-11T17:48:08;11.30;99.90
15967;DHT22;15175;48.154;11.534;2022-11-11T17:50:54;11.30;99.90
15967;DHT22;15175;48.154;11.534;2022-11-11T17:53:40;11.30;99.90
15967;DHT22;15175;48.154;11.534;2022-11-11T17:56:27;11.30;99.90
15967;DHT22;15175;48.154;11.534;2022-11-11T17:59:13;11.30;99.90
15967;DHT22;15175;48.154;11.534;2022-11-11T18:01:58;11.30;99.90
15967;DHT22;15175;48.154;11.534;2022-11-11T18:04:45;11.20;99.90